createdAt,value
2018-05-15T00:01:08.971Z,56.80
2018-05-15T00:03:36.551Z,57.10
2018-05-15T00:06:04.089Z,59.70
2018-05-15T00:08:31.599Z,59.10
2018-05-15T00:10:59.126Z,53.80
2018-05-15T00:13:26.697Z,53.47
2018-05-15T00:15:55.029Z,60.73
2018-05-15T00:18:22.599Z,59.80
2018-05-15T00:20:50.149Z,53.60
2018-05-15T00:23:17.698Z,56.07
2018-05-15T00:25:45.221Z,53.20
2018-05-15T00:28:13.533Z,55.40
2018-05-15T00:30:41.054Z,52.10
2018-05-15T00:33:08.603Z,52.47
2018-05-15T00:35:36.173Z,51.00
2018-05-15T00:38:03.742Z,52.40
2018-05-15T00:40:31.267Z,58.90
2018-05-15T00:42:58.804Z,48.97
2018-05-15T00:45:26.339Z,54.20
2018-05-15T00:47:53.850Z,56.47
2018-05-15T00:50:21.406Z,52.90
2018-05-15T00:52:48.931Z,54.53
2018-05-15T00:55:28.429Z,49.83
2018-05-15T00:57:56.343Z,51.37
2018-05-15T01:00:23.898Z,50.97
2018-05-15T01:02:51.417Z,53.07
2018-05-15T01:05:18.960Z,49.00
2018-05-15T01:07:47.276Z,50.77
2018-05-15T01:10:14.858Z,48.50
2018-05-15T01:12:42.421Z,51.73
2018-05-15T01:15:09.940Z,50.33
2018-05-15T01:17:37.550Z,60.53
2018-05-15T01:20:05.100Z,54.90
2018-05-15T01:22:32.661Z,54.90
2018-05-15T01:25:00.187Z,53.60
2018-05-15T01:27:27.786Z,56.63
2018-05-15T01:29:55.328Z,53.50
2018-05-15T01:32:22.867Z,59.80
2018-05-15T01:34:50.418Z,56.70
2018-05-15T01:37:17.937Z,58.37
2018-05-15T01:39:45.514Z,59.20
2018-05-15T01:42:13.832Z,58.27
2018-05-15T01:44:41.490Z,56.47
2018-05-15T01:47:09.846Z,59.60
2018-05-15T01:49:37.380Z,62.47
2018-05-15T01:52:05.698Z,59.50
2018-05-15T01:54:33.257Z,58.77
2018-05-15T01:57:00.872Z,62.50
2018-05-15T01:59:28.390Z,58.37
2018-05-15T02:01:55.908Z,60.07
2018-05-15T02:04:23.452Z,57.83
2018-05-15T02:06:51.838Z,60.20
2018-05-15T02:09:19.330Z,64.50
2018-05-15T02:11:46.888Z,62.37
2018-05-15T02:14:15.274Z,60.63
2018-05-15T02:16:42.801Z,60.13
2018-05-15T02:19:10.339Z,60.50
2018-05-15T02:21:38.682Z,57.30
2018-05-15T02:24:06.289Z,58.10
2018-05-15T02:26:34.571Z,62.77
2018-05-15T02:29:02.121Z,64.20
2018-05-15T02:31:30.481Z,66.00
2018-05-15T02:33:58.050Z,64.67
2018-05-15T02:36:25.591Z,63.73
2018-05-15T02:38:53.188Z,65.70
2018-05-15T02:41:20.711Z,64.77
2018-05-15T02:43:48.258Z,65.80
2018-05-15T02:46:15.801Z,61.03
2018-05-15T02:48:43.379Z,60.57
2018-05-15T02:51:10.910Z,67.03
2018-05-15T02:53:38.451Z,64.60
2018-05-15T02:56:05.993Z,64.20
2018-05-15T02:58:34.365Z,63.47
2018-05-15T03:01:02.691Z,63.07
2018-05-15T03:03:30.299Z,64.67
2018-05-15T03:05:58.678Z,62.30
2018-05-15T03:08:26.991Z,62.80
2018-05-15T03:10:54.518Z,64.63
2018-05-15T03:13:22.831Z,59.70
2018-05-15T03:15:50.456Z,60.23
2018-05-15T03:18:18.775Z,61.70
2018-05-15T03:20:46.314Z,58.27
2018-05-15T03:23:13.859Z,57.17
2018-05-15T03:25:42.183Z,60.20
2018-05-15T03:28:09.721Z,58.80
2018-05-15T03:30:37.300Z,62.40
2018-05-15T03:33:04.864Z,59.53
2018-05-15T03:35:32.420Z,58.07
2018-05-15T03:37:59.977Z,56.67
2018-05-15T03:40:27.524Z,55.80
2018-05-15T03:42:55.104Z,57.70
2018-05-15T03:45:22.667Z,58.67
2018-05-15T03:47:50.203Z,58.30
2018-05-15T03:50:17.762Z,62.53
2018-05-15T03:52:45.268Z,59.70
2018-05-15T03:55:12.828Z,59.77
2018-05-15T03:57:40.385Z,56.47
2018-05-15T04:03:20.322Z,53.67
2018-05-15T04:05:59.806Z,54.93
2018-05-15T04:08:28.153Z,51.47
2018-05-15T04:10:56.459Z,53.70
2018-05-15T04:13:23.950Z,53.20
2018-05-15T04:15:51.487Z,54.97
2018-05-15T04:18:29.609Z,53.13
2018-05-15T04:20:57.164Z,51.33
2018-05-15T04:23:24.728Z,49.10
2018-05-15T04:25:52.273Z,51.97
2018-05-15T04:28:19.896Z,51.90
2018-05-15T04:30:47.405Z,53.90
2018-05-15T04:33:15.006Z,54.57
2018-05-15T04:35:42.610Z,52.57
2018-05-15T04:38:10.900Z,50.57
2018-05-15T04:40:38.471Z,52.00
2018-05-15T04:43:05.999Z,49.73
2018-05-15T04:45:34.285Z,49.03
2018-05-15T04:48:01.815Z,53.27
2018-05-15T04:50:29.381Z,47.37
2018-05-15T04:52:57.699Z,46.50
2018-05-15T04:55:25.250Z,45.70
2018-05-15T04:57:52.779Z,45.90
2018-05-15T05:00:21.089Z,45.80
2018-05-15T05:02:48.648Z,46.47
2018-05-15T05:05:16.169Z,48.53
2018-05-15T05:07:43.717Z,47.10
2018-05-15T05:10:11.241Z,48.57
2018-05-15T05:12:38.850Z,47.77
2018-05-15T05:15:07.194Z,45.83
2018-05-15T05:17:35.061Z,46.03
2018-05-15T05:20:02.654Z,47.87
2018-05-15T05:22:30.947Z,47.17
2018-05-15T05:24:58.500Z,46.00
2018-05-15T05:27:27.796Z,40.53
2018-05-15T05:29:56.210Z,38.73
2018-05-15T05:32:23.753Z,39.03
2018-05-15T05:34:51.349Z,38.60
2018-05-15T05:37:18.902Z,38.80
2018-05-15T05:39:46.446Z,38.20
2018-05-15T05:42:13.998Z,38.87
2018-05-15T05:44:41.521Z,40.30
2018-05-15T05:47:09.079Z,37.87
2018-05-15T05:49:36.678Z,38.77
2018-05-15T05:52:04.384Z,39.53
2018-05-15T05:54:31.823Z,39.57
2018-05-15T05:56:59.384Z,38.67
2018-05-15T05:59:26.933Z,36.27
2018-05-15T06:01:54.472Z,36.03
2018-05-15T06:04:22.062Z,34.57
2018-05-15T06:06:49.589Z,34.20
2018-05-15T06:09:17.120Z,34.57
2018-05-15T06:11:45.466Z,34.87
2018-05-15T06:14:13.106Z,34.53
2018-05-15T06:16:40.608Z,33.30
2018-05-15T06:19:08.201Z,33.60
2018-05-15T06:21:35.746Z,32.47
2018-05-15T06:24:04.075Z,33.00
2018-05-15T06:26:31.621Z,33.17
2018-05-15T06:28:59.129Z,33.00
2018-05-15T06:31:26.659Z,30.80
2018-05-15T06:33:54.197Z,32.23
2018-05-15T06:36:21.758Z,31.17
2018-05-15T06:38:49.315Z,31.00
2018-05-15T06:41:16.884Z,30.93
2018-05-15T06:43:44.410Z,32.07
2018-05-15T06:46:11.921Z,32.10
2018-05-15T06:48:39.452Z,33.60
2018-05-15T06:51:07.073Z,32.33
2018-05-15T06:53:35.369Z,31.57
2018-05-15T06:56:02.914Z,30.77
2018-05-15T06:58:31.197Z,31.33
2018-05-15T07:00:58.714Z,30.10
2018-05-15T07:03:26.301Z,31.47
2018-05-15T07:05:55.387Z,29.30
2018-05-15T07:08:22.924Z,30.70
2018-05-15T07:10:50.454Z,28.13
2018-05-15T07:13:17.974Z,27.40
2018-05-15T07:15:46.329Z,29.90
2018-05-15T07:18:13.838Z,30.27
2018-05-15T07:20:41.352Z,32.17
2018-05-15T07:23:08.880Z,32.30
2018-05-15T07:25:36.444Z,34.50
2018-05-15T07:28:03.961Z,34.63
2018-05-15T07:30:31.530Z,35.70
2018-05-15T07:32:59.030Z,37.30
2018-05-15T07:35:26.559Z,43.17
2018-05-15T07:37:54.099Z,41.37
2018-05-15T07:40:21.681Z,42.70
2018-05-15T07:42:49.187Z,40.60
2018-05-15T07:45:17.531Z,41.07
2018-05-15T07:47:45.098Z,45.07
2018-05-15T07:50:12.612Z,42.93
2018-05-15T07:52:40.147Z,42.20
2018-05-15T07:55:08.455Z,43.20
2018-05-15T07:57:36.784Z,44.37
2018-05-15T08:00:04.317Z,42.37
2018-05-15T08:02:31.850Z,40.57
2018-05-15T08:04:59.408Z,37.10
2018-05-15T08:07:26.989Z,37.93
2018-05-15T08:09:54.500Z,37.40
2018-05-15T08:12:22.797Z,36.70
2018-05-15T08:14:50.321Z,34.90
2018-05-15T08:17:17.866Z,31.60
2018-05-15T08:19:45.388Z,34.77
2018-05-15T08:22:12.935Z,35.63
2018-05-15T08:24:40.465Z,33.87
2018-05-15T08:27:08.805Z,31.00
2018-05-15T08:29:36.377Z,31.87
2018-05-15T08:32:03.933Z,30.17
2018-05-15T08:34:31.518Z,29.00
2018-05-15T08:36:59.833Z,29.43
2018-05-15T08:39:27.421Z,30.43
2018-05-15T08:41:54.908Z,30.40
2018-05-15T08:44:23.200Z,26.47
2018-05-15T08:46:51.456Z,25.47
2018-05-15T08:49:18.991Z,26.30
2018-05-15T08:51:46.519Z,27.17
2018-05-15T08:54:14.040Z,22.43
2018-05-15T08:56:42.321Z,19.70
2018-05-15T08:59:10.602Z,20.00
2018-05-15T09:01:38.955Z,22.50
2018-05-15T09:04:06.484Z,19.13
2018-05-15T09:06:34.065Z,17.97
2018-05-15T09:09:01.590Z,19.93
2018-05-15T09:11:29.118Z,18.07
2018-05-15T09:13:57.428Z,17.50
2018-05-15T09:16:24.977Z,16.93
2018-05-15T09:18:52.480Z,15.80
2018-05-15T09:21:20.033Z,17.17
2018-05-15T09:23:47.550Z,18.80
2018-05-15T09:26:15.063Z,17.93
2018-05-15T09:28:43.391Z,19.43
2018-05-15T09:31:10.902Z,18.40
2018-05-15T09:33:38.427Z,18.07
2018-05-15T09:36:05.916Z,19.50
2018-05-15T09:38:33.442Z,19.07
2018-05-15T09:41:00.977Z,19.50
2018-05-15T09:46:40.567Z,17.00
2018-05-15T09:49:08.082Z,16.57
2018-05-15T09:51:35.654Z,15.30
2018-05-15T09:54:03.171Z,15.83
2018-05-15T09:56:31.465Z,15.00
2018-05-15T09:58:59.748Z,15.77
2018-05-15T10:01:28.098Z,16.00
2018-05-15T10:03:55.681Z,16.10
2018-05-15T10:06:23.219Z,12.63
2018-05-15T10:08:50.798Z,12.10
2018-05-15T10:11:19.073Z,11.70
2018-05-15T10:13:47.356Z,12.90
2018-05-15T10:16:14.895Z,11.40
2018-05-15T10:18:43.179Z,9.80
2018-05-15T10:21:11.470Z,9.93
2018-05-15T10:23:39.008Z,11.67
2018-05-15T10:26:06.597Z,11.97
2018-05-15T10:28:34.116Z,12.97
2018-05-15T10:31:01.695Z,13.13
2018-05-15T10:33:29.259Z,12.23
2018-05-15T10:35:56.821Z,10.87
2018-05-15T10:38:25.112Z,11.13
2018-05-15T10:40:52.638Z,11.10
2018-05-15T10:43:20.205Z,11.73
2018-05-15T10:45:48.481Z,12.37
2018-05-15T10:48:16.780Z,12.70
2018-05-15T10:50:44.341Z,13.70
2018-05-15T10:53:11.854Z,13.47
2018-05-15T10:55:39.381Z,11.90
2018-05-15T10:58:06.966Z,12.33
2018-05-15T11:00:34.519Z,10.93
2018-05-15T11:03:02.079Z,9.80
2018-05-15T11:05:29.625Z,9.53
2018-05-15T11:07:57.178Z,9.43
2018-05-15T11:10:24.695Z,11.27
2018-05-15T11:12:52.272Z,9.43
2018-05-15T11:15:19.775Z,10.30
2018-05-15T11:17:47.348Z,10.60
2018-05-15T11:20:26.521Z,11.40
2018-05-15T11:23:05.931Z,11.50
2018-05-15T11:25:34.209Z,13.20
2018-05-15T11:28:02.532Z,11.23
2018-05-15T11:30:30.089Z,10.80
2018-05-15T11:32:57.613Z,9.50
2018-05-15T11:35:25.185Z,9.33
2018-05-15T11:37:52.729Z,10.00
2018-05-15T11:40:21.113Z,9.37
2018-05-15T11:42:49.377Z,8.77
2018-05-15T11:45:17.722Z,8.47
2018-05-15T11:47:45.291Z,9.10
2018-05-15T11:50:13.491Z,8.67
2018-05-15T11:52:41.533Z,9.07
2018-05-15T11:55:08.634Z,8.07
2018-05-15T11:57:36.166Z,9.20
2018-05-15T12:00:04.538Z,9.40
2018-05-15T12:02:32.113Z,9.50
2018-05-15T12:04:59.572Z,9.67
2018-05-15T12:07:27.101Z,9.40
2018-05-15T12:09:54.676Z,9.53
2018-05-15T12:12:22.968Z,8.97
2018-05-15T12:14:50.518Z,7.60
2018-05-15T12:17:18.796Z,7.53
2018-05-15T12:19:47.090Z,6.87
2018-05-15T12:22:14.605Z,7.30
2018-05-15T12:24:42.146Z,7.00
2018-05-15T12:27:09.667Z,7.17
2018-05-15T12:29:37.164Z,7.30
2018-05-15T12:32:04.694Z,8.20
2018-05-15T12:34:32.207Z,8.67
2018-05-15T12:36:59.725Z,8.73
2018-05-15T12:39:27.271Z,7.37
2018-05-15T12:41:54.940Z,7.93
2018-05-15T12:44:22.332Z,8.07
2018-05-15T12:46:49.900Z,8.10
2018-05-15T12:49:17.375Z,7.50
2018-05-15T12:51:45.645Z,6.90
2018-05-15T12:54:14.043Z,8.70
2018-05-15T12:56:41.497Z,7.90
2018-05-15T12:59:09.818Z,9.07
2018-05-15T13:01:37.340Z,9.00
2018-05-15T13:04:04.868Z,9.70
2018-05-15T13:06:32.456Z,11.33
2018-05-15T13:08:59.996Z,10.80
2018-05-15T13:11:28.332Z,11.00
2018-05-15T13:13:55.870Z,9.97
2018-05-15T13:16:23.428Z,10.40
2018-05-15T13:18:50.941Z,8.63
2018-05-15T13:21:18.451Z,10.30
2018-05-15T13:23:45.969Z,9.17
2018-05-15T13:26:14.268Z,9.43
2018-05-15T13:28:41.879Z,8.10
2018-05-15T13:31:09.397Z,8.40
2018-05-15T13:33:36.992Z,8.50
2018-05-15T13:36:04.533Z,7.97
2018-05-15T13:38:32.074Z,7.53
2018-05-15T13:40:59.654Z,8.37
2018-05-15T13:43:27.857Z,8.47
2018-05-15T13:45:55.452Z,8.80
2018-05-15T13:48:22.972Z,9.20
2018-05-15T13:50:50.482Z,8.57
2018-05-15T13:53:18.062Z,9.07
2018-05-15T13:55:45.642Z,7.70
2018-05-15T13:58:13.144Z,7.97
2018-05-15T14:00:40.674Z,7.60
2018-05-15T14:03:08.262Z,8.63
2018-05-15T14:05:35.753Z,8.43
2018-05-15T14:08:03.282Z,8.43
2018-05-15T14:10:30.795Z,7.80
2018-05-15T14:12:58.328Z,8.00
2018-05-15T14:15:25.865Z,7.70
2018-05-15T14:17:53.421Z,7.03
2018-05-15T14:20:20.970Z,6.50
2018-05-15T14:22:48.557Z,6.87
2018-05-15T14:25:37.674Z,6.43
2018-05-15T14:28:05.948Z,5.57
2018-05-15T14:30:33.503Z,5.27
2018-05-15T14:33:01.057Z,5.43
2018-05-15T14:35:28.601Z,5.60
2018-05-15T14:37:56.175Z,5.23
2018-05-15T14:40:32.233Z,5.13
2018-05-15T14:43:11.600Z,6.03
2018-05-15T14:45:39.032Z,6.60
2018-05-15T14:48:06.599Z,6.30
2018-05-15T14:50:40.790Z,6.13
2018-05-15T14:53:08.335Z,5.50
2018-05-15T14:55:35.850Z,6.40
2018-05-15T14:58:04.105Z,5.50
2018-05-15T15:00:32.398Z,5.57
2018-05-15T15:03:00.675Z,5.00
2018-05-15T15:05:28.937Z,4.50
2018-05-15T15:07:56.443Z,4.80
2018-05-15T15:13:35.698Z,4.60
2018-05-15T15:16:03.306Z,4.60
2018-05-15T15:18:30.733Z,4.50
2018-05-15T15:20:58.301Z,4.20
2018-05-15T15:23:25.843Z,4.10
2018-05-15T15:25:53.375Z,4.43
2018-05-15T15:28:20.880Z,4.70
2018-05-15T15:30:48.426Z,4.30
2018-05-15T15:33:15.984Z,4.60
2018-05-15T15:35:43.518Z,5.47
2018-05-15T15:38:11.852Z,4.67
2018-05-15T15:40:40.101Z,4.10
2018-05-15T15:43:07.642Z,4.97
2018-05-15T15:45:35.271Z,4.30
2018-05-15T15:48:02.797Z,5.73
2018-05-15T15:50:30.307Z,6.80
2018-05-15T15:52:57.849Z,7.20
2018-05-15T15:55:25.373Z,6.57
2018-05-15T15:57:52.884Z,6.83
2018-05-15T16:00:20.447Z,6.63
2018-05-15T16:02:47.978Z,6.60
2018-05-15T16:05:15.552Z,6.73
2018-05-15T16:07:43.083Z,6.73
2018-05-15T16:10:11.520Z,6.30
2018-05-15T16:15:40.338Z,4.30
2018-05-15T16:18:07.827Z,4.10
2018-05-15T16:23:51.037Z,4.57
2018-05-15T16:26:19.242Z,5.20
2018-05-15T16:28:47.549Z,5.93
2018-05-15T16:31:15.091Z,6.13
2018-05-15T16:33:43.424Z,6.03
2018-05-15T16:36:10.965Z,5.43
2018-05-15T16:38:38.460Z,5.10
2018-05-15T16:41:24.818Z,5.43
2018-05-15T16:44:09.779Z,5.70
2018-05-15T16:46:37.349Z,5.77
2018-05-15T16:49:04.956Z,6.33
2018-05-15T16:54:28.508Z,6.20
2018-05-15T16:56:56.087Z,6.97
2018-05-15T16:59:23.650Z,6.40
2018-05-15T17:01:51.198Z,7.97
2018-05-15T17:04:18.753Z,8.33
2018-05-15T17:06:46.301Z,9.70
2018-05-15T17:09:13.823Z,11.60
2018-05-15T17:11:41.415Z,10.67
2018-05-15T17:14:08.931Z,9.80
2018-05-15T17:16:37.259Z,11.20
2018-05-15T17:19:06.715Z,12.10
2018-05-15T17:21:36.228Z,15.30
2018-05-15T17:24:03.770Z,14.70
2018-05-15T17:26:53.121Z,12.53
2018-05-15T17:29:20.728Z,19.33
2018-05-15T17:31:48.281Z,13.60
2018-05-15T17:34:15.904Z,15.90
2018-05-15T17:37:01.448Z,15.03
2018-05-15T17:39:36.329Z,13.23
2018-05-15T17:42:03.940Z,14.13
2018-05-15T17:44:31.555Z,16.00
2018-05-15T17:50:06.955Z,14.73
2018-05-15T17:52:34.542Z,14.97
2018-05-15T17:55:02.106Z,14.70
2018-05-15T17:57:29.656Z,15.83
2018-05-15T17:59:57.258Z,14.77
2018-05-15T18:02:36.499Z,14.80
2018-05-15T18:11:02.862Z,14.27
2018-05-15T18:27:58.237Z,13.83
2018-05-15T18:30:25.787Z,15.63
2018-05-15T18:32:53.422Z,15.60
2018-05-15T18:35:20.931Z,17.43
2018-05-15T18:37:49.322Z,18.00
2018-05-15T18:40:16.906Z,18.47
2018-05-15T18:42:44.509Z,20.73
2018-05-15T18:45:12.104Z,18.00
2018-05-15T18:47:40.436Z,17.70
2018-05-15T18:50:08.033Z,22.40
2018-05-15T18:52:36.387Z,19.20
2018-05-15T18:55:03.915Z,21.60
2018-05-15T18:57:31.476Z,21.30
2018-05-15T18:59:59.053Z,21.60
2018-05-15T19:02:26.667Z,24.40
2018-05-15T19:04:54.247Z,22.77
2018-05-15T19:07:21.787Z,23.90
2018-05-15T19:09:49.314Z,25.43
2018-05-15T19:12:17.617Z,24.30
2018-05-15T19:14:45.173Z,26.37
2018-05-15T19:17:12.721Z,25.90
2018-05-15T19:19:41.111Z,27.90
2018-05-15T19:22:30.083Z,25.60
2018-05-15T19:25:20.905Z,27.50
2018-05-15T19:27:48.467Z,25.67
2018-05-15T19:30:16.000Z,26.13
2018-05-15T19:32:43.533Z,28.67
2018-05-15T19:38:08.424Z,29.97
2018-05-15T19:40:41.864Z,28.27
2018-05-15T19:43:10.150Z,26.87
2018-05-15T19:45:37.653Z,28.23
2018-05-15T19:48:05.173Z,29.37
2018-05-15T19:50:33.389Z,29.47
2018-05-15T19:53:00.876Z,27.83
2018-05-15T19:55:29.147Z,26.87
2018-05-15T19:57:56.655Z,27.83
2018-05-15T20:00:24.152Z,27.20
2018-05-15T20:02:51.629Z,29.60
2018-05-15T20:05:19.935Z,30.20
2018-05-15T20:07:47.494Z,32.50
2018-05-15T20:10:15.763Z,31.20
2018-05-15T20:12:43.290Z,31.17
2018-05-15T20:15:11.623Z,30.87
2018-05-15T20:17:39.176Z,28.87
2018-05-15T20:20:06.697Z,29.33
2018-05-15T20:22:34.250Z,26.57
2018-05-15T20:25:02.557Z,29.37
2018-05-15T20:27:30.130Z,28.97
2018-05-15T20:29:57.646Z,28.20
2018-05-15T20:32:26.027Z,28.33
2018-05-15T20:34:54.344Z,25.73
2018-05-15T20:37:21.860Z,28.33
2018-05-15T20:39:49.431Z,28.93
2018-05-15T20:42:17.764Z,28.73
2018-05-15T20:44:45.306Z,26.10
2018-05-15T20:47:12.840Z,27.80
2018-05-15T20:49:40.433Z,28.20
2018-05-15T20:52:08.028Z,28.40
2018-05-15T20:54:35.553Z,27.67
2018-05-15T20:57:03.062Z,28.80
2018-05-15T20:59:30.590Z,30.50
2018-05-15T21:01:58.136Z,31.93
2018-05-15T21:04:25.674Z,29.90
2018-05-15T21:06:53.240Z,30.00
2018-05-15T21:09:20.767Z,29.87
2018-05-15T21:11:48.302Z,30.80
2018-05-15T21:14:16.629Z,29.47
2018-05-15T21:16:44.142Z,29.53
2018-05-15T21:19:11.735Z,28.43
2018-05-15T21:21:39.291Z,27.40
2018-05-15T21:24:06.797Z,28.23
2018-05-15T21:26:34.364Z,28.30
2018-05-15T21:29:01.939Z,31.57
2018-05-15T21:31:30.244Z,31.27
2018-05-15T21:33:57.772Z,30.93
2018-05-15T21:36:26.162Z,31.00
2018-05-15T21:38:53.673Z,30.27
2018-05-15T21:41:21.230Z,31.40
2018-05-15T21:43:48.761Z,32.07
2018-05-15T21:46:16.283Z,32.43
2018-05-15T21:48:44.603Z,32.47
2018-05-15T21:51:12.173Z,31.63
2018-05-15T21:53:39.702Z,32.40
2018-05-15T21:56:07.218Z,32.47
2018-05-15T21:58:34.833Z,33.40
2018-05-15T22:01:02.372Z,33.90
2018-05-15T22:03:29.930Z,34.53
2018-05-15T22:05:57.473Z,33.00
2018-05-15T22:08:25.016Z,32.40
2018-05-15T22:10:54.324Z,31.03
2018-05-15T22:13:34.496Z,32.13
2018-05-15T22:16:14.647Z,31.60
2018-05-15T22:18:54.930Z,31.13
2018-05-15T22:21:34.368Z,31.33
2018-05-15T22:24:01.444Z,33.30
2018-05-15T22:26:29.097Z,32.50
2018-05-15T22:28:56.675Z,31.30
2018-05-15T22:31:24.259Z,31.90
2018-05-15T22:33:51.831Z,31.00
2018-05-15T22:36:20.085Z,32.50
2018-05-15T22:38:47.693Z,32.97
2018-05-15T22:41:15.231Z,32.60
2018-05-15T22:43:43.530Z,33.57
2018-05-15T22:46:11.894Z,32.63
2018-05-15T22:48:39.470Z,33.07
2018-05-15T22:51:07.121Z,30.90
2018-05-15T22:53:34.671Z,30.93
2018-05-15T22:56:02.201Z,31.23
2018-05-15T22:58:29.742Z,30.03
2018-05-15T23:00:57.338Z,29.10
2018-05-15T23:03:25.627Z,29.57
2018-05-15T23:05:53.160Z,27.73
2018-05-15T23:08:21.457Z,28.63
2018-05-15T23:10:49.750Z,29.07
2018-05-15T23:13:17.281Z,28.70
2018-05-15T23:15:45.666Z,26.53
2018-05-15T23:18:13.207Z,26.33
2018-05-15T23:20:41.508Z,28.37
2018-05-15T23:23:09.825Z,28.17
2018-05-15T23:25:37.360Z,27.13
2018-05-15T23:28:04.930Z,26.90
2018-05-15T23:30:32.434Z,28.60
2018-05-15T23:33:00.758Z,25.77
2018-05-15T23:35:28.318Z,25.93
2018-05-15T23:40:50.337Z,26.87
2018-05-15T23:43:18.640Z,26.57
2018-05-15T23:45:46.140Z,24.77
2018-05-15T23:48:13.742Z,24.37
2018-05-15T23:50:42.071Z,23.83
2018-05-15T23:53:09.616Z,21.93
2018-05-15T23:55:37.178Z,22.27
2018-05-15T23:58:04.750Z,21.80
